createdAt,value
2023-04-07T00:00:09.386Z,96797.59
2023-04-07T00:02:38.634Z,96794.31
2023-04-07T00:05:07.003Z,96798.44
2023-04-07T00:07:39.607Z,96802.69
2023-04-07T00:10:16.590Z,96808.75
2023-04-07T00:12:44.375Z,96830.06
2023-04-07T00:15:12.576Z,96812.88
2023-04-07T00:17:41.916Z,96807.78
2023-04-07T00:20:10.504Z,96816.31
2023-04-07T00:22:38.410Z,96809.44
2023-04-07T00:25:07.266Z,96814.66
2023-04-07T00:27:35.049Z,96836.81
2023-04-07T00:30:02.850Z,96829.25
2023-04-07T00:32:31.130Z,96823.19
2023-04-07T00:35:02.356Z,96823.88
2023-04-07T00:37:30.549Z,96831.88
2023-04-07T00:39:59.333Z,96841.06
2023-04-07T00:42:27.301Z,96836.94
2023-04-07T00:44:55.315Z,96848.94
2023-04-07T00:47:23.247Z,96842.72
2023-04-07T00:49:51.282Z,96830.06
2023-04-07T00:52:27.261Z,96830.63
2023-04-07T00:54:55.265Z,96832.69
2023-04-07T00:57:23.644Z,96847.13
2023-04-07T00:59:52.365Z,96866.81
2023-04-07T01:02:24.314Z,96854.00
2023-04-07T01:04:59.386Z,96846.31
2023-04-07T01:07:33.975Z,96848.09
2023-04-07T01:10:05.705Z,96858.28
2023-04-07T01:12:41.081Z,96867.53
2023-04-07T01:15:11.942Z,96854.97
2023-04-07T01:17:44.983Z,96857.31
2023-04-07T01:20:17.363Z,96863.38
2023-04-07T01:22:52.063Z,96852.38
2023-04-07T01:25:29.090Z,96849.75
2023-04-07T01:28:12.568Z,96853.19
2023-04-07T01:30:42.833Z,96865.31
2023-04-07T01:33:12.737Z,96851.53
2023-04-07T01:35:42.589Z,96863.38
2023-04-07T01:38:12.334Z,96863.50
2023-04-07T01:40:41.548Z,96848.09
2023-04-07T01:43:10.428Z,96860.91
2023-04-07T01:45:39.484Z,96854.84
2023-04-07T01:48:10.340Z,96858.41
2023-04-07T01:50:39.470Z,96862.53
2023-04-07T01:53:08.687Z,96862.53
2023-04-07T01:55:36.956Z,96880.75
2023-04-07T01:58:08.175Z,96885.97
2023-04-07T02:00:36.336Z,96881.44
2023-04-07T02:03:12.614Z,96884.06
2023-04-07T02:05:41.443Z,96869.44
2023-04-07T02:08:11.562Z,96871.22
2023-04-07T02:10:40.285Z,96869.44
2023-04-07T02:13:11.445Z,96872.03
2023-04-07T02:15:40.245Z,96884.06
2023-04-07T02:18:13.015Z,96895.06
2023-04-07T02:20:42.017Z,96891.75
2023-04-07T02:23:10.178Z,96882.41
2023-04-07T02:25:38.989Z,96884.06
2023-04-07T02:28:08.066Z,96897.81
2023-04-07T02:30:36.781Z,96866.97
2023-04-07T02:33:04.761Z,96894.22
2023-04-07T02:35:33.978Z,96900.28
2023-04-07T02:38:02.689Z,96921.50
2023-04-07T02:40:31.001Z,96907.19
2023-04-07T02:43:05.502Z,96898.63
2023-04-07T02:45:33.974Z,96895.06
2023-04-07T02:48:01.911Z,96914.06
2023-04-07T02:50:29.720Z,96902.91
2023-04-07T02:52:59.012Z,96919.84
2023-04-07T02:55:26.943Z,96906.78
2023-04-07T02:57:54.895Z,96925.91
2023-04-07T03:00:22.818Z,96944.75
2023-04-07T03:02:51.088Z,96940.34
2023-04-07T03:05:19.230Z,96953.28
2023-04-07T03:07:47.236Z,96929.34
2023-04-07T03:10:16.557Z,96936.22
2023-04-07T03:12:44.597Z,96958.41
2023-04-07T03:15:12.696Z,96943.78
2023-04-07T03:17:40.480Z,96937.06
2023-04-07T03:20:09.607Z,96919.28
2023-04-07T03:22:37.598Z,96925.91
2023-04-07T03:25:06.257Z,96934.72
2023-04-07T03:27:35.459Z,96934.44
2023-04-07T03:30:03.568Z,96919.28
2023-04-07T03:32:31.482Z,96920.94
2023-04-07T03:34:59.348Z,96922.59
2023-04-07T03:37:27.269Z,96923.41
2023-04-07T03:39:55.455Z,96939.66
2023-04-07T03:42:23.394Z,96966.94
2023-04-07T03:44:52.784Z,96950.81
2023-04-07T03:47:20.754Z,96970.22
2023-04-07T03:49:48.550Z,96945.59
2023-04-07T03:52:16.847Z,96950.81
2023-04-07T03:54:44.779Z,96947.25
2023-04-07T03:57:12.689Z,96955.78
2023-04-07T03:59:40.544Z,96937.06
2023-04-07T04:02:10.288Z,96955.78
2023-04-07T04:04:38.242Z,96941.31
2023-04-07T04:07:06.410Z,96938.00
2023-04-07T04:09:34.175Z,96927.84
2023-04-07T04:12:02.422Z,96933.88
2023-04-07T04:14:30.416Z,96930.44
2023-04-07T04:16:58.280Z,96938.97
2023-04-07T04:19:27.499Z,96953.44
2023-04-07T04:21:55.538Z,96956.75
2023-04-07T04:24:23.377Z,96948.34
2023-04-07T04:26:51.180Z,96973.00
2023-04-07T04:29:19.074Z,96999.44
2023-04-07T04:31:47.196Z,97015.72
2023-04-07T04:34:15.054Z,97002.03
2023-04-07T04:36:44.653Z,97009.78
2023-04-07T04:39:12.506Z,97017.50
2023-04-07T04:41:40.427Z,97037.19
2023-04-07T04:44:08.477Z,97064.47
2023-04-07T04:46:36.457Z,97044.09
2023-04-07T04:49:04.619Z,97054.28
2023-04-07T04:51:32.629Z,97043.25
2023-04-07T04:54:03.746Z,97052.63
2023-04-07T04:56:32.077Z,97088.47
2023-04-07T04:59:00.253Z,97073.84
2023-04-07T05:01:28.027Z,97044.63
2023-04-07T05:03:56.300Z,97052.50
2023-04-07T05:06:24.516Z,97086.53
2023-04-07T05:08:52.293Z,97091.75
2023-04-07T05:11:22.150Z,97085.00
2023-04-07T05:13:50.247Z,97100.31
2023-04-07T05:16:18.438Z,97111.47
2023-04-07T05:18:46.495Z,97116.69
2023-04-07T05:21:14.306Z,97141.41
2023-04-07T05:23:42.582Z,97189.94
2023-04-07T05:26:10.478Z,97189.94
2023-04-07T05:28:39.814Z,97200.97
2023-04-07T05:31:08.066Z,97196.28
2023-04-07T05:33:36.078Z,97191.72
2023-04-07T05:36:04.017Z,97199.59
2023-04-07T05:38:32.274Z,97251.47
2023-04-07T05:41:00.114Z,97272.72
2023-04-07T05:43:28.213Z,97251.47
2023-04-07T05:45:57.729Z,97249.81
2023-04-07T05:48:25.792Z,97239.56
2023-04-07T05:50:53.856Z,97257.53
2023-04-07T05:53:21.666Z,97305.28
2023-04-07T05:55:49.444Z,97307.91
2023-04-07T05:58:17.721Z,97295.88
2023-04-07T06:00:45.628Z,97305.00
2023-04-07T06:03:14.904Z,97292.44
2023-04-07T06:05:43.852Z,97307.19
2023-04-07T06:08:12.805Z,97310.50
2023-04-07T06:10:41.764Z,97295.19
2023-04-07T06:13:09.806Z,97294.22
2023-04-07T06:15:37.665Z,97308.84
2023-04-07T06:18:05.496Z,97310.50
2023-04-07T06:20:35.906Z,97333.56
2023-04-07T06:23:03.734Z,97341.16
2023-04-07T06:25:31.633Z,97342.25
2023-04-07T06:27:59.589Z,97349.28
2023-04-07T06:30:27.515Z,97369.59
2023-04-07T06:32:55.676Z,97379.00
2023-04-07T06:35:23.639Z,97385.06
2023-04-07T06:37:52.910Z,97384.25
2023-04-07T06:40:20.867Z,97396.94
2023-04-07T06:42:48.789Z,97442.22
2023-04-07T06:45:16.780Z,97410.59
2023-04-07T06:47:44.660Z,97399.56
2023-04-07T06:50:12.702Z,97409.91
2023-04-07T06:52:40.686Z,97422.06
2023-04-07T06:55:11.226Z,97397.63
2023-04-07T06:57:39.302Z,97461.84
2023-04-07T07:00:09.144Z,97476.47
2023-04-07T07:02:37.223Z,97485.75
2023-04-07T07:05:05.978Z,97502.06
2023-04-07T07:07:33.930Z,97554.41
2023-04-07T07:10:02.127Z,97554.69
2023-04-07T07:12:32.426Z,97547.50
2023-04-07T07:15:00.187Z,97607.66
2023-04-07T07:17:29.198Z,97604.19
2023-04-07T07:19:57.076Z,97637.38
2023-04-07T07:22:25.009Z,97630.72
2023-04-07T07:24:52.836Z,97672.47
2023-04-07T07:27:20.999Z,97699.88
2023-04-07T07:29:50.244Z,97698.19
2023-04-07T07:32:18.144Z,97686.19
2023-04-07T07:34:46.305Z,97741.09
2023-04-07T07:37:14.123Z,97724.78
2023-04-07T07:39:42.016Z,97743.31
2023-04-07T07:42:09.922Z,97762.41
2023-04-07T07:44:37.733Z,97780.53
2023-04-07T07:47:06.961Z,97809.47
2023-04-07T07:49:35.860Z,97777.91
2023-04-07T07:52:03.889Z,97784.94
2023-04-07T07:54:31.731Z,97764.16
2023-04-07T07:56:59.808Z,97828.56
2023-04-07T07:59:28.445Z,97805.56
2023-04-07T08:01:56.337Z,97842.28
2023-04-07T08:04:26.510Z,97853.50
2023-04-07T08:06:55.154Z,97839.66
2023-04-07T08:09:23.008Z,97831.31
2023-04-07T08:11:51.304Z,97871.75
2023-04-07T08:14:19.271Z,97886.84
2023-04-07T08:16:47.492Z,97894.47
2023-04-07T08:19:15.676Z,97934.06
2023-04-07T08:21:44.903Z,97970.09
2023-04-07T08:24:12.783Z,97968.44
2023-04-07T08:26:40.676Z,97994.19
2023-04-07T08:29:08.603Z,97996.69
2023-04-07T08:31:36.601Z,98027.59
2023-04-07T08:34:04.598Z,98037.84
2023-04-07T08:36:32.551Z,98072.13
2023-04-07T08:39:02.319Z,98112.59
2023-04-07T08:41:34.719Z,98095.66
2023-04-07T08:44:02.936Z,98122.84
2023-04-07T08:46:31.619Z,98134.78
2023-04-07T08:49:00.390Z,98085.84
2023-04-07T08:51:30.006Z,98058.50
2023-04-07T08:54:06.352Z,98014.97
2023-04-07T08:56:35.111Z,98016.63
2023-04-07T08:59:03.510Z,98057.66
2023-04-07T09:01:32.387Z,98107.44
2023-04-07T09:04:01.546Z,98142.91
2023-04-07T09:06:32.079Z,98162.22
2023-04-07T09:09:00.026Z,98148.88
2023-04-07T09:11:30.735Z,98181.34
2023-04-07T09:13:59.044Z,98192.34
2023-04-07T09:16:31.083Z,98219.94
2023-04-07T09:18:59.370Z,98223.41
2023-04-07T09:21:27.995Z,98234.63
2023-04-07T09:23:55.915Z,98209.69
2023-04-07T09:26:25.549Z,98168.44
2023-04-07T09:28:56.353Z,98165.13
2023-04-07T09:31:26.324Z,98239.78
2023-04-07T09:33:55.563Z,98221.75
2023-04-07T09:36:27.191Z,98255.88
2023-04-07T09:38:55.099Z,98263.78
2023-04-07T09:41:22.961Z,98284.56
2023-04-07T09:43:59.454Z,98293.19
2023-04-07T09:46:29.334Z,98259.66
2023-04-07T09:49:05.868Z,98285.41
2023-04-07T09:51:34.506Z,98241.56
2023-04-07T09:54:02.381Z,98265.69
2023-04-07T09:56:31.004Z,98284.56
2023-04-07T09:59:01.907Z,98287.22
2023-04-07T10:01:30.423Z,98309.69
2023-04-07T10:03:59.134Z,98312.09
2023-04-07T10:06:27.665Z,98283.16
2023-04-07T10:08:55.638Z,98354.84
2023-04-07T10:11:23.723Z,98375.66
2023-04-07T10:13:52.539Z,98361.78
2023-04-07T10:16:23.820Z,98354.03
2023-04-07T10:18:52.180Z,98372.31
2023-04-07T10:21:24.410Z,98369.69
2023-04-07T10:24:01.055Z,98400.78
2023-04-07T10:26:33.249Z,98404.38
2023-04-07T10:29:05.561Z,98409.38
2023-04-07T10:31:35.552Z,98419.56
2023-04-07T10:34:03.728Z,98410.09
2023-04-07T10:36:31.886Z,98433.31
2023-04-07T10:39:22.178Z,98410.94
2023-04-07T10:41:51.931Z,98382.59
2023-04-07T10:44:49.936Z,98383.44
2023-04-07T10:47:19.483Z,98416.31
2023-04-07T10:50:20.652Z,98438.59
2023-04-07T10:53:09.403Z,98434.28
2023-04-07T10:55:39.305Z,98435.94
2023-04-07T10:58:22.114Z,98393.72
2023-04-07T11:01:21.108Z,98418.69
2023-04-07T11:04:04.809Z,98380.94
2023-04-07T11:06:33.021Z,98432.59
2023-04-07T11:09:00.877Z,98465.13
2023-04-07T11:11:40.114Z,98449.00
2023-04-07T11:14:09.011Z,98466.91
2023-04-07T11:16:45.544Z,98458.44
2023-04-07T11:19:14.877Z,98464.28
2023-04-07T11:21:42.782Z,98494.56
2023-04-07T11:24:10.651Z,98495.28
2023-04-07T11:26:40.367Z,98519.56
2023-04-07T11:29:08.460Z,98503.41
2023-04-07T11:31:37.226Z,98481.63
2023-04-07T11:34:06.328Z,98481.75
2023-04-07T11:36:40.309Z,98537.50
2023-04-07T11:39:20.321Z,98560.88
2023-04-07T11:41:49.409Z,98574.88
2023-04-07T11:44:17.366Z,98594.38
2023-04-07T11:46:54.780Z,98646.31
2023-04-07T11:49:23.607Z,98650.63
2023-04-07T11:52:01.031Z,98649.44
2023-04-07T11:54:29.126Z,98744.31
2023-04-07T11:56:57.003Z,98765.88
2023-04-07T11:59:26.494Z,98768.28
2023-04-07T12:01:57.522Z,98707.19
2023-04-07T12:04:26.236Z,98729.56
2023-04-07T12:06:55.550Z,98747.91
2023-04-07T12:09:32.184Z,98801.13
2023-04-07T12:12:00.725Z,98817.53
2023-04-07T12:14:28.741Z,98782.19
2023-04-07T12:16:58.397Z,98763.34
2023-04-07T12:19:27.891Z,98778.84
2023-04-07T12:22:00.663Z,98789.16
2023-04-07T12:24:28.732Z,98808.31
2023-04-07T12:26:56.622Z,98767.56
2023-04-07T12:29:24.639Z,98802.94
2023-04-07T12:31:52.682Z,98837.56
2023-04-07T12:34:20.715Z,98877.25
2023-04-07T12:36:48.611Z,98853.16
2023-04-07T12:39:18.214Z,98936.66
2023-04-07T12:41:47.648Z,98988.34
2023-04-07T12:44:17.316Z,98992.78
2023-04-07T12:46:45.131Z,98995.41
2023-04-07T12:49:13.029Z,99026.53
2023-04-07T12:51:41.338Z,99021.38
2023-04-07T12:54:09.295Z,99062.75
2023-04-07T12:56:38.736Z,99035.16
2023-04-07T12:59:06.538Z,99048.84
2023-04-07T13:01:35.604Z,99098.16
2023-04-07T13:04:03.708Z,99022.31
2023-04-07T13:06:32.245Z,99112.81
2023-04-07T13:09:00.191Z,99201.69
2023-04-07T13:11:28.353Z,99146.69
2023-04-07T13:13:59.247Z,99208.53
2023-04-07T13:16:28.582Z,99244.97
2023-04-07T13:18:57.638Z,99221.63
2023-04-07T13:21:45.372Z,99176.59
2023-04-07T13:24:15.885Z,99177.56
2023-04-07T13:26:43.763Z,99200.00
2023-04-07T13:29:13.020Z,99231.22
2023-04-07T13:31:41.650Z,99255.28
2023-04-07T13:34:09.460Z,99152.47
2023-04-07T13:36:37.517Z,99179.34
2023-04-07T13:39:05.718Z,99174.06
2023-04-07T13:41:33.525Z,99210.56
2023-04-07T13:44:01.892Z,99081.13
2023-04-07T13:46:31.243Z,99094.81
2023-04-07T13:48:59.215Z,99142.25
2023-04-07T13:51:28.119Z,99155.09
2023-04-07T13:53:56.236Z,99131.81
2023-04-07T13:56:24.756Z,99074.16
2023-04-07T13:58:52.620Z,99068.88
2023-04-07T14:01:20.564Z,99082.31
2023-04-07T14:03:50.621Z,99099.00
2023-04-07T14:06:18.752Z,99117.25
2023-04-07T14:08:46.709Z,99110.28
2023-04-07T14:11:18.021Z,99133.47
2023-04-07T14:13:46.206Z,99149.44
2023-04-07T14:16:14.284Z,99150.06
2023-04-07T14:18:42.199Z,99093.13
2023-04-07T14:21:11.574Z,99091.44
2023-04-07T14:23:39.455Z,99104.28
2023-04-07T14:26:11.370Z,99074.88
2023-04-07T14:28:39.359Z,99086.28
2023-04-07T14:31:07.373Z,99111.13
2023-04-07T14:33:35.625Z,99118.94
2023-04-07T14:36:03.484Z,99110.53
2023-04-07T14:38:34.844Z,99055.19
2023-04-07T14:43:35.880Z,98973.09
2023-04-07T14:46:03.703Z,98942.84
2023-04-07T14:48:32.696Z,98931.69
2023-04-07T14:51:09.199Z,98958.34
2023-04-07T14:53:39.286Z,98940.34
2023-04-07T14:56:08.003Z,98940.22
2023-04-07T14:58:38.920Z,98927.25
2023-04-07T15:01:10.355Z,98947.19
2023-04-07T15:03:39.227Z,98978.38
2023-04-07T15:06:11.135Z,98977.44
2023-04-07T15:08:40.773Z,98989.53
2023-04-07T15:11:09.008Z,98979.22
2023-04-07T15:13:37.633Z,98937.81
2023-04-07T15:16:10.578Z,98901.44
2023-04-07T15:18:40.958Z,98874.59
2023-04-07T15:21:09.216Z,98766.84
2023-04-07T15:23:38.805Z,98752.34
2023-04-07T15:26:08.589Z,98748.03
2023-04-07T15:28:36.433Z,98735.94
2023-04-07T15:31:08.349Z,98777.38
2023-04-07T15:33:39.602Z,98764.31
2023-04-07T15:36:08.671Z,98717.84
2023-04-07T15:38:38.808Z,98726.59
2023-04-07T15:41:08.042Z,98714.38
2023-04-07T15:43:36.821Z,98704.78
2023-04-07T15:46:04.736Z,98659.25
2023-04-07T15:48:32.473Z,98679.03
2023-04-07T15:51:00.394Z,98664.66
2023-04-07T15:53:28.365Z,98649.94
2023-04-07T15:55:56.392Z,98552.59
2023-04-07T15:58:25.649Z,98560.38
2023-04-07T16:00:53.599Z,98598.22
2023-04-07T16:03:21.518Z,98587.81
2023-04-07T16:05:51.095Z,98606.72
2023-04-07T16:08:18.901Z,98540.28
2023-04-07T16:10:46.796Z,98514.78
2023-04-07T16:13:15.494Z,98519.34
2023-04-07T16:15:44.902Z,98489.44
2023-04-07T16:18:13.043Z,98478.09
2023-04-07T16:20:40.973Z,98513.69
2023-04-07T16:23:08.937Z,98485.47
2023-04-07T16:25:37.064Z,98474.25
2023-04-07T16:28:06.326Z,98477.72
2023-04-07T16:30:34.911Z,98478.66
2023-04-07T16:33:04.180Z,98451.03
2023-04-07T16:35:32.159Z,98447.66
2023-04-07T16:38:03.983Z,98416.69
2023-04-07T16:40:32.365Z,98397.81
2023-04-07T16:43:00.516Z,98362.53
2023-04-07T16:45:28.367Z,98346.03
2023-04-07T16:47:56.267Z,98324.63
2023-04-07T16:50:25.499Z,98317.81
2023-04-07T16:52:54.841Z,98310.88
2023-04-07T16:55:22.868Z,98295.59
2023-04-07T16:57:51.071Z,98264.53
2023-04-07T17:00:20.183Z,98237.06
2023-04-07T17:02:48.220Z,98206.09
2023-04-07T17:05:17.364Z,98185.44
2023-04-07T17:07:46.500Z,98155.50
2023-04-07T17:10:15.472Z,98157.03
2023-04-07T17:12:43.354Z,98153.69
2023-04-07T17:15:11.848Z,98128.88
2023-04-07T17:17:39.758Z,98102.22
2023-04-07T17:20:08.904Z,98080.03
2023-04-07T17:22:37.493Z,98072.28
2023-04-07T17:25:07.695Z,98058.56
2023-04-07T17:27:36.042Z,98036.97
2023-04-07T17:30:05.219Z,98027.66
2023-04-07T17:32:33.228Z,98019.78
2023-04-07T17:35:01.600Z,98006.91
2023-04-07T17:37:29.416Z,97979.44
2023-04-07T17:39:57.302Z,97968.47
2023-04-07T17:42:26.615Z,97975.41
2023-04-07T17:44:54.876Z,97955.59
2023-04-07T17:47:22.858Z,97923.19
2023-04-07T17:49:50.764Z,97916.28
2023-04-07T17:52:18.998Z,97909.47
2023-04-07T17:54:47.212Z,97874.16
2023-04-07T17:57:15.855Z,97887.06
2023-04-07T17:59:45.123Z,97868.34
2023-04-07T18:02:12.996Z,97840.81
2023-04-07T18:04:41.364Z,97825.44
2023-04-07T18:07:09.565Z,97806.63
2023-04-07T18:09:37.320Z,97807.44
2023-04-07T18:12:05.512Z,97787.53
2023-04-07T18:14:33.309Z,97805.66
2023-04-07T18:17:02.531Z,97777.28
2023-04-07T18:19:31.005Z,97767.06
2023-04-07T18:22:00.038Z,97768.72
2023-04-07T18:24:28.206Z,97768.13
2023-04-07T18:26:56.863Z,97733.69
2023-04-07T18:29:24.791Z,97717.50
2023-04-07T18:31:53.052Z,97717.38
2023-04-07T18:34:22.271Z,97708.94
2023-04-07T18:36:50.635Z,97710.59
2023-04-07T18:39:19.112Z,97694.41
2023-04-07T18:41:48.426Z,97672.16
2023-04-07T18:44:16.305Z,97679.88
2023-04-07T18:46:44.229Z,97677.41
2023-04-07T18:49:12.081Z,97634.38
2023-04-07T18:51:41.729Z,97629.41
2023-04-07T18:54:09.548Z,97627.72
2023-04-07T18:56:37.493Z,97612.97
2023-04-07T18:59:07.251Z,97617.38
2023-04-07T19:01:35.649Z,97607.97
2023-04-07T19:04:03.691Z,97609.63
2023-04-07T19:06:32.037Z,97594.16
2023-04-07T19:09:01.266Z,97583.94
2023-04-07T19:11:29.573Z,97590.84
2023-04-07T19:13:57.366Z,97584.75
2023-04-07T19:16:25.799Z,97581.56
2023-04-07T19:18:54.000Z,97567.06
2023-04-07T19:21:21.815Z,97563.47
2023-04-07T19:23:49.962Z,97576.31
2023-04-07T19:26:19.381Z,97567.50
2023-04-07T19:28:48.369Z,97555.59
2023-04-07T19:31:16.451Z,97559.06
2023-04-07T19:33:44.993Z,97566.81
2023-04-07T19:36:13.000Z,97560.84
2023-04-07T19:38:43.069Z,97573.72
2023-04-07T19:41:11.577Z,97548.72
2023-04-07T19:43:40.698Z,97550.72
2023-04-07T19:46:09.203Z,97536.09
2023-04-07T19:48:37.190Z,97533.47
2023-04-07T19:51:07.113Z,97516.22
2023-04-07T19:53:35.449Z,97522.28
2023-04-07T19:56:04.487Z,97515.38
2023-04-07T19:58:34.466Z,97523.94
2023-04-07T20:01:04.560Z,97535.25
2023-04-07T20:03:32.575Z,97523.94
2023-04-07T20:06:00.800Z,97515.38
2023-04-07T20:08:28.580Z,97497.69
2023-04-07T20:10:56.392Z,97505.41
2023-04-07T20:13:24.258Z,97514.53
2023-04-07T20:15:52.068Z,97526.69
2023-04-07T20:18:21.453Z,97537.75
2023-04-07T20:20:50.161Z,97525.88
2023-04-07T20:23:22.150Z,97515.66
2023-04-07T20:25:50.091Z,97501.84
2023-04-07T20:28:18.025Z,97506.13
2023-04-07T20:30:45.903Z,97496.03
2023-04-07T20:33:14.092Z,97500.44
2023-04-07T20:35:43.351Z,97489.69
2023-04-07T20:38:11.142Z,97503.50
2023-04-07T20:40:39.128Z,97489.94
2023-04-07T20:43:07.550Z,97478.63
2023-04-07T20:45:35.354Z,97489.69
2023-04-07T20:48:03.355Z,97493.28
2023-04-07T20:50:31.272Z,97485.66
2023-04-07T20:53:00.732Z,97467.59
2023-04-07T20:55:28.824Z,97464.28
2023-04-07T20:57:57.226Z,97441.91
2023-04-07T21:00:26.064Z,97436.66
2023-04-07T21:02:54.101Z,97442.88
2023-04-07T21:05:22.480Z,97441.91
2023-04-07T21:07:50.349Z,97469.25
2023-04-07T21:10:19.636Z,97467.59
2023-04-07T21:12:47.646Z,97484.00
2023-04-07T21:15:15.731Z,97474.50
2023-04-07T21:17:43.799Z,97474.22
2023-04-07T21:20:12.925Z,97465.78
2023-04-07T21:22:40.914Z,97445.22
2023-04-07T21:25:09.481Z,97457.50
2023-04-07T21:27:38.714Z,97450.47
2023-04-07T21:30:07.251Z,97478.63
2023-04-07T21:32:35.210Z,97481.41
2023-04-07T21:35:03.765Z,97464.00
2023-04-07T21:37:31.578Z,97468.28
2023-04-07T21:40:01.426Z,97484.72
2023-04-07T21:42:30.960Z,97459.94
2023-04-07T21:45:00.843Z,97475.31
2023-04-07T21:47:28.940Z,97464.97
2023-04-07T21:49:57.944Z,97490.66
2023-04-07T21:52:25.688Z,97503.75
2023-04-07T21:54:53.559Z,97512.06
2023-04-07T21:57:21.566Z,97505.16
2023-04-07T21:59:49.391Z,97502.66
2023-04-07T22:02:18.641Z,97493.28
2023-04-07T22:04:46.838Z,97500.19
2023-04-07T22:07:14.987Z,97509.44
2023-04-07T22:09:43.174Z,97500.19
2023-04-07T22:12:11.156Z,97476.16
2023-04-07T22:14:39.199Z,97481.13
2023-04-07T22:17:07.799Z,97513.72
2023-04-07T22:19:37.395Z,97503.50
2023-04-07T22:22:07.721Z,97489.00
2023-04-07T22:24:35.807Z,97488.03
2023-04-07T22:27:03.795Z,97490.78
2023-04-07T22:29:31.666Z,97478.63
2023-04-07T22:31:59.704Z,97514.69
2023-04-07T22:34:27.749Z,97492.44
2023-04-07T22:36:57.199Z,97491.63
2023-04-07T22:39:25.049Z,97479.47
2023-04-07T22:41:53.721Z,97470.47
2023-04-07T22:44:21.619Z,97483.75
2023-04-07T22:46:49.606Z,97483.31
2023-04-07T22:49:17.566Z,97470.91
2023-04-07T22:51:48.686Z,97476.16
2023-04-07T22:54:18.796Z,97474.50
2023-04-07T22:56:46.659Z,97468.56
2023-04-07T22:59:14.575Z,97481.66
2023-04-07T23:01:42.430Z,97476.16
2023-04-07T23:04:10.369Z,97469.50
2023-04-07T23:06:40.564Z,97489.94
2023-04-07T23:09:08.475Z,97483.88
2023-04-07T23:11:37.666Z,97469.38
2023-04-07T23:14:06.292Z,97488.16
2023-04-07T23:16:34.958Z,97487.34
2023-04-07T23:19:03.193Z,97491.88
2023-04-07T23:21:32.067Z,97498.50
2023-04-07T23:24:00.815Z,97501.84
2023-04-07T23:26:28.613Z,97515.66
2023-04-07T23:28:57.775Z,97509.44
2023-04-07T23:31:25.684Z,97495.91
2023-04-07T23:33:53.585Z,97527.41
2023-04-07T23:36:21.441Z,97515.66
2023-04-07T23:38:49.514Z,97510.41
2023-04-07T23:41:17.706Z,97523.38
2023-04-07T23:43:45.635Z,97527.53
2023-04-07T23:46:14.891Z,97527.53
2023-04-07T23:48:43.281Z,97541.34
2023-04-07T23:51:14.667Z,97527.91
2023-04-07T23:53:42.508Z,97553.25
2023-04-07T23:56:10.628Z,97556.56
2023-04-07T23:58:38.631Z,97549.66
